East Douglas, MA (01516)

3:50 AM EST on February 07, 2016 (GMT -0500)
Bill and Cyndi Cross St | | Change Station
CLOSE
Current Station
Personal Weather Station
Location: Douglas, MA
Elevation: 582 ft
Nearby Weather Stations

Elev 582 ft 42.08 °N, 71.74 °W | Updated 7 seconds ago

Clear
Clear
26.4 °F
Feels Like 26 °F
N
0.0
Wind Variable Wind from WNW
Gusts 0.0 mph

Today
High -- | Low -- °F
--% Chance of Precip.
Yesterday
High -- | Low -- °F
Precip. -- in
Pressure 30.17 in
Visibility 10.0 miles
Clouds Clear
Windchill 26 °F
Dew Point 24 °F
Humidity 91%
Rainfall 0.00 in
Snow Depth Not available.
6:53 AM 5:08 PM
Waning Crescent, 2% visible
METAR KORH 070754Z AUTO 24010KT 10SM CLR M04/M08 A3012 RMK AO2 SLP215 T10391083 $
Pressure 30.17 in
Visibility 10.0 miles
Clouds Clear
Windchill 26 °F
Dew Point 24 °F
Humidity 91%
Rainfall 0.00 in
Snow Depth Not available.
6:53 AM 5:08 PM
Waning Crescent, 2% visible
METAR KORH 070754Z AUTO 24010KT 10SM CLR M04/M08 A3012 RMK AO2 SLP215 T10391083 $

10-Day Weather Forecast

Almanac

Astronomy

Feb. 07, 2016 Rise Set
Actual Time
Civil Twilight
Nautical Twilight
Astronomical Twilight
Moon
Length of Visible Light
Length of Day
Tomorrow will be .
, % of the Moon is Illuminated

Today's Extremes

State Highs State Lows

Community

WunderPhotos

Upload Photos

1,891,171 photos uploaded!

WunderBlog® & News

Nearby

Air Quality

  Air Quality AQ Index Pollutant
Not available.

Snow Depth

Station Depth Elevation

Earthquake Activity

City Distance Mag. Time & Date
Minimum magnitude displayed is 2.5.

Coastal Water Temperatures

Place Temperature

Stations

Nearby Weather Stations

Station Location Temp. Windchill Dew Point Humidity Wind Precip. Elev Updated Type
                   

Watches & Warnings

There are currently no watches in effect.